createdAt,value
2022-09-06T00:02:36.952Z,9.38
2022-09-06T00:05:38.734Z,8.18
2022-09-06T00:08:41.337Z,8.82
2022-09-06T00:11:42.278Z,13.30
2022-09-06T00:14:43.044Z,8.35
2022-09-06T00:17:45.312Z,8.82
2022-09-06T00:20:46.201Z,8.40
2022-09-06T00:23:47.504Z,7.60
2022-09-06T00:26:48.535Z,8.00
2022-09-06T00:29:49.718Z,8.48
2022-09-06T00:32:51.753Z,9.50
2022-09-06T00:35:59.987Z,9.73
2022-09-06T00:39:01.034Z,10.55
2022-09-06T00:42:01.834Z,26.48
2022-09-06T00:45:06.291Z,7.88
2022-09-06T00:48:07.344Z,8.48
2022-09-06T00:51:13.188Z,7.90
2022-09-06T00:54:14.322Z,11.50
2022-09-06T00:57:17.566Z,11.35
2022-09-06T01:00:20.498Z,8.27
2022-09-06T01:03:24.704Z,13.95
2022-09-06T01:06:52.015Z,11.38
2022-09-06T01:13:22.781Z,9.82
2022-09-06T01:17:01.000Z,9.35
2022-09-06T01:20:42.024Z,9.70
2022-09-06T01:24:17.890Z,9.48
2022-09-06T01:27:53.373Z,9.25
2022-09-06T01:31:35.499Z,10.00
2022-09-06T01:34:45.876Z,10.13
2022-09-06T01:37:48.262Z,10.77
2022-09-06T01:40:49.483Z,11.27
2022-09-06T01:43:53.169Z,13.85
2022-09-06T01:47:48.704Z,11.32
2022-09-06T01:51:01.910Z,9.98
2022-09-06T01:54:22.753Z,11.73
2022-09-06T01:58:01.883Z,14.77
2022-09-06T02:01:16.108Z,9.70
2022-09-06T02:04:36.882Z,9.75
2022-09-06T02:07:40.267Z,10.63
2022-09-06T02:10:55.589Z,9.07
2022-09-06T02:14:11.511Z,9.85
2022-09-06T02:17:19.352Z,9.07
2022-09-06T02:20:28.812Z,8.77
2022-09-06T02:23:38.586Z,8.98
2022-09-06T02:26:43.763Z,8.63
2022-09-06T02:29:45.224Z,9.40
2022-09-06T02:33:10.394Z,16.55
2022-09-06T02:36:11.552Z,10.13
2022-09-06T02:39:13.535Z,10.65
2022-09-06T02:42:17.680Z,12.30
2022-09-06T02:45:18.906Z,9.52
2022-09-06T02:48:20.160Z,10.57
2022-09-06T02:51:21.202Z,10.02
2022-09-06T02:54:22.517Z,9.38
2022-09-06T02:57:23.445Z,9.60
2022-09-06T03:00:25.616Z,5.93
2022-09-06T03:03:27.795Z,5.38
2022-09-06T03:06:29.016Z,8.57
2022-09-06T03:09:29.943Z,7.43
2022-09-06T03:12:30.815Z,7.25
2022-09-06T03:15:31.846Z,9.75
2022-09-06T03:18:33.344Z,13.30
2022-09-06T03:21:34.158Z,6.97
2022-09-06T03:24:34.976Z,8.18
2022-09-06T03:27:36.329Z,6.93
2022-09-06T03:30:37.289Z,8.10
2022-09-06T03:33:38.429Z,8.43
2022-09-06T03:36:39.479Z,9.77
2022-09-06T03:39:40.406Z,9.70
2022-09-06T03:42:41.496Z,8.52
2022-09-06T03:46:00.071Z,6.28
2022-09-06T03:49:02.147Z,6.00
2022-09-06T03:52:03.355Z,9.98
2022-09-06T03:55:05.609Z,6.38
2022-09-06T03:58:06.668Z,8.23
2022-09-06T04:01:11.530Z,6.32
2022-09-06T04:04:12.781Z,7.55
2022-09-06T04:07:13.628Z,7.05
2022-09-06T04:10:14.515Z,7.65
2022-09-06T04:13:15.530Z,7.82
2022-09-06T04:16:17.840Z,8.32
2022-09-06T04:19:19.036Z,5.90
2022-09-06T04:22:20.438Z,8.02
2022-09-06T04:25:21.699Z,6.53
2022-09-06T04:28:24.126Z,10.70
2022-09-06T04:31:25.569Z,5.75
2022-09-06T04:34:26.643Z,14.68
2022-09-06T04:37:27.382Z,5.55
2022-09-06T04:40:28.663Z,7.25
2022-09-06T04:43:29.465Z,7.57
2022-09-06T04:46:31.322Z,4.25
2022-09-06T04:49:32.071Z,7.53
2022-09-06T04:52:33.401Z,4.82
2022-09-06T04:55:35.276Z,4.43
2022-09-06T04:58:36.444Z,7.05
2022-09-06T05:01:37.262Z,7.43
2022-09-06T05:04:38.069Z,7.60
2022-09-06T05:07:38.893Z,5.97
2022-09-06T05:10:39.846Z,7.18
2022-09-06T05:13:41.305Z,5.90
2022-09-06T05:16:42.566Z,4.20
2022-09-06T05:19:43.666Z,7.63
2022-09-06T05:22:52.225Z,9.10
2022-09-06T05:25:54.199Z,4.97
2022-09-06T05:28:55.077Z,7.03
2022-09-06T05:31:56.279Z,5.53
2022-09-06T05:34:57.484Z,5.78
2022-09-06T05:37:58.632Z,6.90
2022-09-06T05:40:59.900Z,5.53
2022-09-06T05:44:01.219Z,6.32
2022-09-06T05:47:03.123Z,7.57
2022-09-06T05:50:05.059Z,15.80
2022-09-06T05:53:05.976Z,5.53
2022-09-06T05:56:08.676Z,9.23
2022-09-06T05:59:09.475Z,5.68
2022-09-06T06:02:10.727Z,5.85
2022-09-06T06:05:12.029Z,9.05
2022-09-06T06:08:12.842Z,6.38
2022-09-06T06:11:15.623Z,6.18
2022-09-06T06:14:16.504Z,6.88
2022-09-06T06:17:17.238Z,8.35
2022-09-06T06:20:18.555Z,9.32
2022-09-06T06:23:19.507Z,3.58
2022-09-06T06:26:22.085Z,6.07
2022-09-06T06:29:22.945Z,6.70
2022-09-06T06:32:23.871Z,5.28
2022-09-06T06:35:25.758Z,9.57
2022-09-06T06:38:38.612Z,6.93
2022-09-06T06:41:39.464Z,6.10
2022-09-06T06:44:59.544Z,4.43
2022-09-06T06:48:00.336Z,4.05
2022-09-06T06:51:02.501Z,4.93
2022-09-06T06:54:05.083Z,8.77
2022-09-06T06:57:06.301Z,9.75
2022-09-06T07:00:08.298Z,7.70
2022-09-06T07:03:11.167Z,5.10
2022-09-06T07:06:12.675Z,5.22
2022-09-06T07:09:14.664Z,4.22
2022-09-06T07:12:15.628Z,6.75
2022-09-06T07:15:17.184Z,3.20
2022-09-06T07:18:18.754Z,7.25
2022-09-06T07:24:37.380Z,3.25
2022-09-06T07:30:47.167Z,4.93
2022-09-06T07:33:52.534Z,9.40
2022-09-06T07:36:56.671Z,7.85
2022-09-06T07:39:57.988Z,5.00
2022-09-06T07:43:00.567Z,8.35
2022-09-06T07:46:14.879Z,6.53
2022-09-06T07:49:16.038Z,4.13
2022-09-06T07:55:37.710Z,4.35
2022-09-06T07:58:40.771Z,9.45
2022-09-06T08:01:42.491Z,4.00
2022-09-06T08:04:46.643Z,5.35
2022-09-06T08:07:49.836Z,4.97
2022-09-06T08:10:51.529Z,13.00
2022-09-06T08:13:55.736Z,4.10
2022-09-06T08:16:56.558Z,8.75
2022-09-06T08:19:57.411Z,5.32
2022-09-06T08:22:58.168Z,7.93
2022-09-06T08:26:00.139Z,4.60
2022-09-06T08:29:07.865Z,3.70
2022-09-06T08:32:08.652Z,4.20
2022-09-06T08:35:10.473Z,4.18
2022-09-06T08:38:11.506Z,7.70
2022-09-06T08:41:34.474Z,6.38
2022-09-06T08:45:00.782Z,7.95
2022-09-06T08:48:02.617Z,7.93
2022-09-06T08:51:51.648Z,7.25
2022-09-06T08:55:29.672Z,6.55
2022-09-06T08:59:13.790Z,6.57
2022-09-06T09:02:21.708Z,7.72
2022-09-06T09:05:31.553Z,7.85
2022-09-06T09:08:53.101Z,7.57
2022-09-06T09:11:54.180Z,5.18
2022-09-06T09:15:05.566Z,7.78
2022-09-06T09:18:06.708Z,5.18
2022-09-06T09:21:07.716Z,6.43
2022-09-06T09:24:12.586Z,8.77
2022-09-06T09:27:18.214Z,11.95
2022-09-06T09:33:41.314Z,7.85
2022-09-06T09:40:03.962Z,12.23
2022-09-06T09:43:30.690Z,9.95
2022-09-06T09:46:40.049Z,14.73
2022-09-06T09:49:41.106Z,7.90
2022-09-06T09:52:45.077Z,12.07
2022-09-06T09:55:47.279Z,8.70
2022-09-06T09:58:48.488Z,10.35
2022-09-06T10:01:52.188Z,11.90
2022-09-06T10:05:02.211Z,8.02
2022-09-06T10:08:03.600Z,7.20
2022-09-06T10:11:04.718Z,8.68
2022-09-06T10:14:25.778Z,7.80
2022-09-06T10:17:36.852Z,7.68
2022-09-06T10:20:56.641Z,6.63
2022-09-06T10:24:38.455Z,8.45
2022-09-06T10:28:14.902Z,9.18
2022-09-06T10:34:58.754Z,9.40
2022-09-06T10:38:26.986Z,5.95
2022-09-06T10:41:54.783Z,11.73
2022-09-06T10:45:21.330Z,10.05
2022-09-06T10:48:32.143Z,11.45
2022-09-06T10:51:45.841Z,6.93
2022-09-06T10:54:47.479Z,9.43
2022-09-06T10:58:20.676Z,8.07
2022-09-06T11:01:41.778Z,8.27
2022-09-06T11:08:47.941Z,10.45
2022-09-06T11:12:35.212Z,16.63
2022-09-06T11:16:11.914Z,7.70
2022-09-06T11:19:35.069Z,7.95
2022-09-06T11:23:24.048Z,10.90
2022-09-06T11:27:13.553Z,14.60
2022-09-06T11:30:18.958Z,15.43
2022-09-06T11:33:35.581Z,11.20
2022-09-06T11:36:50.005Z,8.82
2022-09-06T11:43:53.674Z,10.63
2022-09-06T11:46:54.683Z,11.15
2022-09-06T11:49:56.101Z,6.25
2022-09-06T11:53:03.432Z,6.60
2022-09-06T11:56:04.198Z,7.05
2022-09-06T11:59:23.369Z,7.40
2022-09-06T12:02:42.609Z,6.95
2022-09-06T12:06:31.874Z,10.43
2022-09-06T12:09:42.768Z,12.35
2022-09-06T12:12:50.125Z,10.60
2022-09-06T12:15:56.675Z,9.18
2022-09-06T12:18:59.736Z,12.90
2022-09-06T12:22:00.694Z,11.23
2022-09-06T12:25:35.006Z,11.82
2022-09-06T12:28:52.794Z,10.10
2022-09-06T12:31:57.845Z,11.13
2022-09-06T12:38:26.196Z,9.02
2022-09-06T12:41:32.355Z,18.98
2022-09-06T12:44:43.494Z,10.80
2022-09-06T12:47:45.481Z,9.93
2022-09-06T12:50:46.587Z,13.68
2022-09-06T12:53:52.406Z,8.45
2022-09-06T12:57:12.571Z,13.33
2022-09-06T13:00:15.086Z,12.45
2022-09-06T13:03:36.139Z,14.38
2022-09-06T13:06:45.878Z,7.85
2022-09-06T13:09:53.975Z,11.55
2022-09-06T13:12:58.821Z,8.32
2022-09-06T13:16:00.082Z,11.48
2022-09-06T13:19:29.911Z,9.30
2022-09-06T13:22:47.650Z,12.40
2022-09-06T13:25:52.270Z,14.88
2022-09-06T13:28:53.387Z,19.77
2022-09-06T13:31:57.295Z,9.95
2022-09-06T13:35:00.660Z,17.70
2022-09-06T13:38:33.773Z,17.75
2022-09-06T13:41:43.886Z,21.42
2022-09-06T13:44:44.848Z,10.45
2022-09-06T13:47:45.526Z,11.63
2022-09-06T13:50:46.705Z,14.05
2022-09-06T13:53:48.725Z,9.68
2022-09-06T13:56:50.643Z,13.05
2022-09-06T13:59:51.583Z,18.05
2022-09-06T14:02:55.531Z,12.43
2022-09-06T14:05:57.400Z,11.63
2022-09-06T14:09:07.716Z,9.23
2022-09-06T14:12:09.391Z,10.32
2022-09-06T14:15:10.535Z,9.05
2022-09-06T14:18:14.319Z,12.65
2022-09-06T14:21:15.772Z,10.95
2022-09-06T14:24:16.740Z,10.13
2022-09-06T14:27:18.738Z,13.13
2022-09-06T14:30:19.960Z,8.75
2022-09-06T14:33:21.646Z,13.65
2022-09-06T14:36:27.037Z,9.73
2022-09-06T14:39:28.006Z,7.00
2022-09-06T14:42:29.234Z,9.30
2022-09-06T14:45:32.942Z,9.80
2022-09-06T14:48:35.310Z,10.32
2022-09-06T14:51:39.932Z,12.90
2022-09-06T14:54:41.002Z,13.48
2022-09-06T14:57:42.268Z,9.48
2022-09-06T15:00:45.819Z,8.85
2022-09-06T15:03:51.962Z,9.68
2022-09-06T15:06:54.023Z,7.77
2022-09-06T15:09:55.085Z,8.85
2022-09-06T15:12:55.738Z,8.90
2022-09-06T15:15:57.516Z,10.10
2022-09-06T15:18:59.137Z,10.57
2022-09-06T15:22:00.301Z,10.57
2022-09-06T15:25:01.355Z,17.33
2022-09-06T15:28:03.030Z,9.32
2022-09-06T15:31:05.709Z,11.15
2022-09-06T15:34:08.550Z,10.35
2022-09-06T15:37:10.100Z,10.68
2022-09-06T15:40:12.039Z,8.98
2022-09-06T15:43:13.306Z,9.68
2022-09-06T15:46:18.420Z,9.82
2022-09-06T15:49:28.385Z,8.20
2022-09-06T15:52:29.534Z,8.75
2022-09-06T15:55:49.778Z,11.73
2022-09-06T15:58:51.092Z,10.40
2022-09-06T16:01:52.369Z,8.38
2022-09-06T16:04:53.823Z,12.70
2022-09-06T16:07:54.999Z,10.75
2022-09-06T16:10:57.011Z,8.18
2022-09-06T16:13:58.245Z,8.77
2022-09-06T16:16:59.090Z,13.48
2022-09-06T16:20:01.827Z,9.77
2022-09-06T16:23:02.717Z,10.57
2022-09-06T16:26:05.958Z,10.02
2022-09-06T16:29:10.253Z,9.63
2022-09-06T16:32:12.146Z,8.80
2022-09-06T16:35:13.306Z,8.07
2022-09-06T16:38:14.682Z,15.80
2022-09-06T16:41:26.007Z,8.10
2022-09-06T16:44:28.374Z,8.43
2022-09-06T16:56:23.522Z,10.15
2022-09-06T16:59:24.396Z,14.02
2022-09-06T17:02:25.699Z,8.82
2022-09-06T17:05:26.783Z,10.40
2022-09-06T17:08:28.167Z,11.75
2022-09-06T17:11:29.781Z,13.57
2022-09-06T17:14:30.842Z,11.52
2022-09-06T17:17:31.828Z,10.38
2022-09-06T17:20:32.792Z,11.93
2022-09-06T17:23:36.152Z,11.73
2022-09-06T17:26:39.989Z,10.73
2022-09-06T17:29:41.146Z,11.75
2022-09-06T17:32:42.252Z,10.77
2022-09-06T17:35:43.325Z,11.32
2022-09-06T17:38:52.750Z,16.50
2022-09-06T17:41:54.698Z,11.57
2022-09-06T17:44:55.856Z,11.48
2022-09-06T17:47:56.609Z,20.15
2022-09-06T17:51:09.369Z,20.95
2022-09-06T17:54:10.513Z,24.77
2022-09-06T17:57:11.849Z,13.73
2022-09-06T18:00:14.154Z,16.88
2022-09-06T18:03:15.312Z,14.57
2022-09-06T18:06:20.709Z,18.52
2022-09-06T18:09:21.927Z,15.23
2022-09-06T18:12:24.312Z,16.55
2022-09-06T18:15:25.023Z,13.02
2022-09-06T18:18:25.778Z,15.95
2022-09-06T18:21:31.066Z,20.63
2022-09-06T18:24:32.213Z,18.85
2022-09-06T18:27:34.340Z,12.13
2022-09-06T18:30:35.071Z,13.40
2022-09-06T18:33:37.203Z,13.25
2022-09-06T18:36:39.401Z,11.35
2022-09-06T18:39:42.562Z,11.20
2022-09-06T18:42:44.819Z,12.85
2022-09-06T18:45:46.725Z,16.23
2022-09-06T18:48:47.642Z,13.93
2022-09-06T18:51:48.532Z,14.18
2022-09-06T18:54:49.662Z,12.10
2022-09-06T18:57:50.792Z,15.77
2022-09-06T19:00:52.733Z,11.88
2022-09-06T19:03:53.988Z,13.90
2022-09-06T19:06:55.044Z,10.65
2022-09-06T19:09:55.724Z,13.85
2022-09-06T19:12:57.273Z,10.27
2022-09-06T19:15:58.850Z,15.25
2022-09-06T19:19:07.025Z,17.45
2022-09-06T19:22:08.040Z,18.33
2022-09-06T19:25:10.884Z,14.48
2022-09-06T19:28:11.588Z,19.83
2022-09-06T19:31:14.613Z,19.02
2022-09-06T19:34:16.323Z,14.32
2022-09-06T19:37:20.120Z,16.88
2022-09-06T19:40:21.305Z,14.40
2022-09-06T19:43:22.639Z,19.52
2022-09-06T19:46:25.235Z,16.20
2022-09-06T19:49:27.167Z,17.73
2022-09-06T19:52:28.255Z,23.00
2022-09-06T19:55:34.298Z,22.20
2022-09-06T19:58:35.221Z,17.67
2022-09-06T20:01:39.620Z,18.30
2022-09-06T20:04:41.615Z,20.17
2022-09-06T20:07:42.578Z,26.50
2022-09-06T20:10:58.172Z,19.40
2022-09-06T20:14:00.964Z,25.65
2022-09-06T20:17:16.746Z,26.08
2022-09-06T20:20:23.332Z,26.38
2022-09-06T20:23:24.637Z,28.20
2022-09-06T20:26:30.493Z,36.05
2022-09-06T20:29:31.745Z,24.48
2022-09-06T20:32:33.920Z,23.20
2022-09-06T20:35:34.939Z,21.75
2022-09-06T20:38:40.464Z,26.42
2022-09-06T20:41:41.556Z,22.98
2022-09-06T20:44:42.907Z,28.80
2022-09-06T20:47:44.108Z,23.67
2022-09-06T20:50:44.965Z,21.38
2022-09-06T20:53:51.695Z,21.52
2022-09-06T20:56:53.884Z,25.60
2022-09-06T20:59:54.856Z,26.92
2022-09-06T21:02:55.650Z,24.70
2022-09-06T21:05:56.427Z,22.58
2022-09-06T21:08:58.127Z,24.98
2022-09-06T21:11:59.294Z,28.67
2022-09-06T21:15:00.244Z,19.77
2022-09-06T21:18:02.448Z,29.90
2022-09-06T21:21:06.872Z,27.92
2022-09-06T21:24:09.312Z,25.58
2022-09-06T21:27:12.230Z,26.70
2022-09-06T21:30:13.583Z,32.03
2022-09-06T21:33:14.917Z,23.50
2022-09-06T21:36:20.319Z,27.77
2022-09-06T21:39:21.348Z,32.28
2022-09-06T21:42:22.568Z,38.20
2022-09-06T21:45:23.632Z,38.70
2022-09-06T21:48:25.004Z,37.25
2022-09-06T21:51:27.460Z,41.00
2022-09-06T21:54:29.101Z,42.17
2022-09-06T21:57:30.266Z,42.17
2022-09-06T22:00:31.456Z,44.90
2022-09-06T22:03:37.197Z,43.67
2022-09-06T22:06:38.785Z,47.33
2022-09-06T22:09:39.667Z,33.65
2022-09-06T22:12:43.232Z,38.58
2022-09-06T22:15:45.029Z,32.58
2022-09-06T22:18:47.118Z,33.28
2022-09-06T22:21:48.409Z,26.98
2022-09-06T22:24:49.268Z,24.95
2022-09-06T22:27:50.477Z,29.95
2022-09-06T22:30:51.842Z,29.38
2022-09-06T22:33:53.918Z,29.48
2022-09-06T22:36:55.234Z,36.28
2022-09-06T22:39:56.701Z,32.10
2022-09-06T22:42:57.435Z,28.27
2022-09-06T22:46:10.941Z,33.92
2022-09-06T22:49:12.411Z,31.75
2022-09-06T22:52:13.476Z,35.67
2022-09-06T22:55:14.814Z,29.42
2022-09-06T22:58:16.530Z,31.38
2022-09-06T23:01:18.201Z,27.48
2022-09-06T23:04:19.229Z,32.53
2022-09-06T23:07:20.516Z,40.03
2022-09-06T23:10:21.774Z,38.67
2022-09-06T23:13:22.604Z,41.42
2022-09-06T23:16:24.886Z,35.75
2022-09-06T23:19:25.987Z,35.70
2022-09-06T23:22:27.120Z,40.15
2022-09-06T23:25:28.019Z,44.80
2022-09-06T23:28:28.801Z,38.55
2022-09-06T23:31:32.758Z,36.88
2022-09-06T23:34:34.063Z,35.72
2022-09-06T23:37:34.969Z,35.05
2022-09-06T23:40:36.440Z,33.67
2022-09-06T23:43:38.998Z,40.20
2022-09-06T23:46:39.927Z,39.63
2022-09-06T23:49:41.342Z,42.58
2022-09-06T23:52:42.314Z,37.80
2022-09-06T23:55:44.312Z,39.55
2022-09-06T23:58:45.186Z,45.55
